sensor_id;sensor_type;location;lat;lon;timestamp;P1;durP1;ratioP1;P2;durP2;ratioP2
46090;SDS011;31826;53.572;10.170;2023-08-06T00:00:15;3.42;;;1.40;;
46090;SDS011;31826;53.572;10.170;2023-08-06T00:02:41;5.15;;;1.63;;
46090;SDS011;31826;53.572;10.170;2023-08-06T00:05:07;3.97;;;1.57;;
46090;SDS011;31826;53.572;10.170;2023-08-06T00:07:33;3.10;;;1.53;;
46090;SDS011;31826;53.572;10.170;2023-08-06T00:09:58;3.57;;;1.60;;
46090;SDS011;31826;53.572;10.170;2023-08-06T00:12:24;2.67;;;1.70;;
46090;SDS011;31826;53.572;10.170;2023-08-06T00:14:50;3.25;;;1.45;;
46090;SDS011;31826;53.572;10.170;2023-08-06T00:17:16;3.15;;;1.60;;
46090;SDS011;31826;53.572;10.170;2023-08-06T00:19:42;4.32;;;1.60;;
46090;SDS011;31826;53.572;10.170;2023-08-06T00:22:08;3.37;;;1.83;;
46090;SDS011;31826;53.572;10.170;2023-08-06T00:24:34;3.93;;;1.60;;
46090;SDS011;31826;53.572;10.170;2023-08-06T00:27:00;4.20;;;1.77;;
46090;SDS011;31826;53.572;10.170;2023-08-06T00:29:26;3.63;;;1.80;;
46090;SDS011;31826;53.572;10.170;2023-08-06T00:31:52;3.35;;;1.80;;
46090;SDS011;31826;53.572;10.170;2023-08-06T00:34:17;3.67;;;1.97;;
46090;SDS011;31826;53.572;10.170;2023-08-06T00:36:43;4.70;;;2.10;;
46090;SDS011;31826;53.572;10.170;2023-08-06T00:39:09;5.30;;;2.30;;
46090;SDS011;31826;53.572;10.170;2023-08-06T00:41:34;4.70;;;1.75;;
46090;SDS011;31826;53.572;10.170;2023-08-06T00:44:00;4.15;;;2.10;;
46090;SDS011;31826;53.572;10.170;2023-08-06T00:46:26;5.47;;;2.30;;
46090;SDS011;31826;53.572;10.170;2023-08-06T00:48:52;3.45;;;2.00;;
46090;SDS011;31826;53.572;10.170;2023-08-06T00:51:18;3.87;;;1.90;;
46090;SDS011;31826;53.572;10.170;2023-08-06T00:53:45;3.55;;;1.90;;
46090;SDS011;31826;53.572;10.170;2023-08-06T00:56:12;4.22;;;1.95;;
46090;SDS011;31826;53.572;10.170;2023-08-06T00:58:38;5.30;;;2.13;;
46090;SDS011;31826;53.572;10.170;2023-08-06T01:01:04;5.18;;;2.00;;
46090;SDS011;31826;53.572;10.170;2023-08-06T01:03:30;4.30;;;2.28;;
46090;SDS011;31826;53.572;10.170;2023-08-06T01:05:56;4.43;;;1.98;;
46090;SDS011;31826;53.572;10.170;2023-08-06T01:16:18;4.05;;;2.10;;
46090;SDS011;31826;53.572;10.170;2023-08-06T01:18:46;4.28;;;2.20;;
46090;SDS011;31826;53.572;10.170;2023-08-06T01:21:14;5.07;;;2.17;;
46090;SDS011;31826;53.572;10.170;2023-08-06T01:23:41;4.68;;;2.22;;
46090;SDS011;31826;53.572;10.170;2023-08-06T01:26:19;5.15;;;2.30;;
46090;SDS011;31826;53.572;10.170;2023-08-06T01:29:23;5.68;;;2.30;;
46090;SDS011;31826;53.572;10.170;2023-08-06T01:31:54;5.65;;;2.40;;
46090;SDS011;31826;53.572;10.170;2023-08-06T01:34:26;4.50;;;2.33;;
46090;SDS011;31826;53.572;10.170;2023-08-06T01:36:55;5.05;;;2.50;;
46090;SDS011;31826;53.572;10.170;2023-08-06T01:39:22;5.13;;;2.53;;
46090;SDS011;31826;53.572;10.170;2023-08-06T01:41:48;4.83;;;2.47;;
46090;SDS011;31826;53.572;10.170;2023-08-06T01:44:16;6.07;;;2.70;;
46090;SDS011;31826;53.572;10.170;2023-08-06T01:46:42;5.90;;;2.40;;
46090;SDS011;31826;53.572;10.170;2023-08-06T01:49:07;4.30;;;2.47;;
46090;SDS011;31826;53.572;10.170;2023-08-06T01:51:33;5.65;;;2.67;;
46090;SDS011;31826;53.572;10.170;2023-08-06T01:53:59;6.18;;;2.70;;
46090;SDS011;31826;53.572;10.170;2023-08-06T01:56:25;5.80;;;2.80;;
46090;SDS011;31826;53.572;10.170;2023-08-06T01:58:50;5.97;;;2.90;;
46090;SDS011;31826;53.572;10.170;2023-08-06T02:01:16;9.00;;;3.00;;
46090;SDS011;31826;53.572;10.170;2023-08-06T02:03:42;5.55;;;3.10;;
46090;SDS011;31826;53.572;10.170;2023-08-06T02:06:08;5.27;;;2.70;;
46090;SDS011;31826;53.572;10.170;2023-08-06T02:08:33;6.50;;;2.80;;
46090;SDS011;31826;53.572;10.170;2023-08-06T02:10:59;5.05;;;2.80;;
46090;SDS011;31826;53.572;10.170;2023-08-06T02:13:25;5.63;;;2.60;;
46090;SDS011;31826;53.572;10.170;2023-08-06T02:15:51;6.40;;;2.90;;
46090;SDS011;31826;53.572;10.170;2023-08-06T02:18:16;5.43;;;2.63;;
46090;SDS011;31826;53.572;10.170;2023-08-06T02:20:42;5.80;;;2.70;;
46090;SDS011;31826;53.572;10.170;2023-08-06T02:23:08;6.53;;;3.07;;
46090;SDS011;31826;53.572;10.170;2023-08-06T02:25:34;4.40;;;2.63;;
46090;SDS011;31826;53.572;10.170;2023-08-06T02:28:00;4.40;;;2.35;;
46090;SDS011;31826;53.572;10.170;2023-08-06T02:30:26;6.40;;;3.05;;
46090;SDS011;31826;53.572;10.170;2023-08-06T02:32:52;5.95;;;2.75;;
46090;SDS011;31826;53.572;10.170;2023-08-06T02:35:17;6.45;;;3.00;;
46090;SDS011;31826;53.572;10.170;2023-08-06T02:37:43;8.07;;;2.90;;
46090;SDS011;31826;53.572;10.170;2023-08-06T02:40:09;6.80;;;3.10;;
46090;SDS011;31826;53.572;10.170;2023-08-06T02:42:35;5.73;;;2.60;;
46090;SDS011;31826;53.572;10.170;2023-08-06T02:45:00;6.10;;;3.10;;
46090;SDS011;31826;53.572;10.170;2023-08-06T02:47:27;6.15;;;3.05;;
46090;SDS011;31826;53.572;10.170;2023-08-06T02:49:52;6.47;;;2.80;;
46090;SDS011;31826;53.572;10.170;2023-08-06T02:52:18;6.67;;;3.00;;
46090;SDS011;31826;53.572;10.170;2023-08-06T02:54:44;6.27;;;3.00;;
46090;SDS011;31826;53.572;10.170;2023-08-06T02:57:09;6.13;;;2.97;;
46090;SDS011;31826;53.572;10.170;2023-08-06T02:59:35;8.15;;;2.95;;
46090;SDS011;31826;53.572;10.170;2023-08-06T03:02:01;5.72;;;2.85;;
46090;SDS011;31826;53.572;10.170;2023-08-06T03:04:27;6.40;;;3.08;;
46090;SDS011;31826;53.572;10.170;2023-08-06T03:06:53;10.23;;;2.63;;
46090;SDS011;31826;53.572;10.170;2023-08-06T03:09:18;7.63;;;2.70;;
46090;SDS011;31826;53.572;10.170;2023-08-06T03:11:44;7.55;;;3.33;;
46090;SDS011;31826;53.572;10.170;2023-08-06T03:14:10;7.03;;;2.80;;
46090;SDS011;31826;53.572;10.170;2023-08-06T03:16:35;6.67;;;2.60;;
46090;SDS011;31826;53.572;10.170;2023-08-06T03:19:01;5.85;;;2.75;;
46090;SDS011;31826;53.572;10.170;2023-08-06T03:21:27;5.80;;;2.80;;
46090;SDS011;31826;53.572;10.170;2023-08-06T03:23:53;7.60;;;2.95;;
46090;SDS011;31826;53.572;10.170;2023-08-06T03:26:18;7.60;;;2.80;;
46090;SDS011;31826;53.572;10.170;2023-08-06T03:28:44;7.20;;;2.93;;
46090;SDS011;31826;53.572;10.170;2023-08-06T03:31:10;6.77;;;2.80;;
46090;SDS011;31826;53.572;10.170;2023-08-06T03:33:36;5.33;;;2.60;;
46090;SDS011;31826;53.572;10.170;2023-08-06T03:36:01;5.40;;;2.30;;
46090;SDS011;31826;53.572;10.170;2023-08-06T03:38:27;6.38;;;2.95;;
46090;SDS011;31826;53.572;10.170;2023-08-06T03:40:53;10.10;;;3.10;;
46090;SDS011;31826;53.572;10.170;2023-08-06T03:43:19;7.13;;;2.90;;
46090;SDS011;31826;53.572;10.170;2023-08-06T03:45:45;8.85;;;3.00;;
46090;SDS011;31826;53.572;10.170;2023-08-06T03:48:10;5.80;;;2.80;;
46090;SDS011;31826;53.572;10.170;2023-08-06T03:50:36;7.63;;;2.78;;
46090;SDS011;31826;53.572;10.170;2023-08-06T03:53:03;6.27;;;2.93;;
46090;SDS011;31826;53.572;10.170;2023-08-06T03:55:28;6.80;;;3.23;;
46090;SDS011;31826;53.572;10.170;2023-08-06T03:57:54;6.43;;;2.70;;
46090;SDS011;31826;53.572;10.170;2023-08-06T04:00:20;5.60;;;2.53;;
46090;SDS011;31826;53.572;10.170;2023-08-06T04:02:45;8.10;;;3.10;;
46090;SDS011;31826;53.572;10.170;2023-08-06T04:05:11;4.65;;;2.45;;
46090;SDS011;31826;53.572;10.170;2023-08-06T04:07:37;6.78;;;2.60;;
46090;SDS011;31826;53.572;10.170;2023-08-06T04:10:03;8.10;;;3.23;;
46090;SDS011;31826;53.572;10.170;2023-08-06T04:12:30;6.70;;;2.60;;
46090;SDS011;31826;53.572;10.170;2023-08-06T04:14:58;8.15;;;2.90;;
46090;SDS011;31826;53.572;10.170;2023-08-06T04:17:24;6.82;;;3.08;;
46090;SDS011;31826;53.572;10.170;2023-08-06T04:19:53;6.35;;;2.75;;
46090;SDS011;31826;53.572;10.170;2023-08-06T04:22:19;4.88;;;2.42;;
46090;SDS011;31826;53.572;10.170;2023-08-06T04:24:46;6.75;;;2.83;;
46090;SDS011;31826;53.572;10.170;2023-08-06T04:27:12;5.88;;;2.78;;
46090;SDS011;31826;53.572;10.170;2023-08-06T04:29:39;8.40;;;3.10;;
46090;SDS011;31826;53.572;10.170;2023-08-06T04:32:05;8.38;;;2.85;;
46090;SDS011;31826;53.572;10.170;2023-08-06T04:34:32;6.28;;;2.90;;
46090;SDS011;31826;53.572;10.170;2023-08-06T04:36:58;8.07;;;3.10;;
46090;SDS011;31826;53.572;10.170;2023-08-06T04:39:24;6.10;;;2.80;;
46090;SDS011;31826;53.572;10.170;2023-08-06T04:41:50;8.68;;;3.40;;
46090;SDS011;31826;53.572;10.170;2023-08-06T04:44:16;6.50;;;3.00;;
46090;SDS011;31826;53.572;10.170;2023-08-06T04:46:42;6.10;;;2.93;;
46090;SDS011;31826;53.572;10.170;2023-08-06T04:49:07;7.37;;;3.30;;
46090;SDS011;31826;53.572;10.170;2023-08-06T04:51:33;7.83;;;2.90;;
46090;SDS011;31826;53.572;10.170;2023-08-06T04:53:59;7.35;;;3.22;;
46090;SDS011;31826;53.572;10.170;2023-08-06T04:56:24;6.03;;;3.03;;
46090;SDS011;31826;53.572;10.170;2023-08-06T04:58:50;7.63;;;3.22;;
46090;SDS011;31826;53.572;10.170;2023-08-06T05:01:16;8.03;;;3.43;;
46090;SDS011;31826;53.572;10.170;2023-08-06T05:03:42;8.30;;;3.10;;
46090;SDS011;31826;53.572;10.170;2023-08-06T05:06:07;9.13;;;3.33;;
46090;SDS011;31826;53.572;10.170;2023-08-06T05:08:33;7.47;;;2.97;;
46090;SDS011;31826;53.572;10.170;2023-08-06T05:10:59;8.37;;;3.47;;
46090;SDS011;31826;53.572;10.170;2023-08-06T05:13:25;6.53;;;3.00;;
46090;SDS011;31826;53.572;10.170;2023-08-06T05:15:51;6.78;;;2.95;;
46090;SDS011;31826;53.572;10.170;2023-08-06T05:18:18;9.15;;;2.75;;
46090;SDS011;31826;53.572;10.170;2023-08-06T05:20:44;10.20;;;3.30;;
46090;SDS011;31826;53.572;10.170;2023-08-06T05:23:10;8.43;;;3.00;;
46090;SDS011;31826;53.572;10.170;2023-08-06T05:25:36;7.40;;;2.97;;
46090;SDS011;31826;53.572;10.170;2023-08-06T05:28:05;9.98;;;3.25;;
46090;SDS011;31826;53.572;10.170;2023-08-06T05:30:31;9.30;;;3.28;;
46090;SDS011;31826;53.572;10.170;2023-08-06T05:32:56;6.55;;;3.35;;
46090;SDS011;31826;53.572;10.170;2023-08-06T05:35:22;8.45;;;3.20;;
46090;SDS011;31826;53.572;10.170;2023-08-06T05:37:49;7.05;;;3.35;;
46090;SDS011;31826;53.572;10.170;2023-08-06T05:40:15;8.02;;;3.35;;
46090;SDS011;31826;53.572;10.170;2023-08-06T05:42:41;6.93;;;3.13;;
46090;SDS011;31826;53.572;10.170;2023-08-06T05:45:07;8.90;;;3.22;;
46090;SDS011;31826;53.572;10.170;2023-08-06T05:47:33;9.60;;;3.78;;
46090;SDS011;31826;53.572;10.170;2023-08-06T05:49:59;9.50;;;3.53;;
46090;SDS011;31826;53.572;10.170;2023-08-06T05:52:24;8.70;;;3.40;;
46090;SDS011;31826;53.572;10.170;2023-08-06T05:54:50;8.00;;;3.70;;
46090;SDS011;31826;53.572;10.170;2023-08-06T05:57:16;6.63;;;3.65;;
46090;SDS011;31826;53.572;10.170;2023-08-06T05:59:42;8.13;;;3.13;;
46090;SDS011;31826;53.572;10.170;2023-08-06T06:02:08;7.97;;;3.38;;
46090;SDS011;31826;53.572;10.170;2023-08-06T06:04:34;9.68;;;3.60;;
46090;SDS011;31826;53.572;10.170;2023-08-06T06:07:00;9.27;;;3.22;;
46090;SDS011;31826;53.572;10.170;2023-08-06T06:09:26;7.72;;;3.65;;
46090;SDS011;31826;53.572;10.170;2023-08-06T06:11:51;9.80;;;3.80;;
46090;SDS011;31826;53.572;10.170;2023-08-06T06:14:17;7.17;;;3.47;;
46090;SDS011;31826;53.572;10.170;2023-08-06T06:16:44;8.75;;;3.53;;
46090;SDS011;31826;53.572;10.170;2023-08-06T06:19:10;7.18;;;3.25;;
46090;SDS011;31826;53.572;10.170;2023-08-06T06:21:36;8.63;;;3.60;;
46090;SDS011;31826;53.572;10.170;2023-08-06T06:24:03;8.35;;;3.50;;
46090;SDS011;31826;53.572;10.170;2023-08-06T06:26:30;8.98;;;3.70;;
46090;SDS011;31826;53.572;10.170;2023-08-06T06:28:57;9.18;;;3.50;;
46090;SDS011;31826;53.572;10.170;2023-08-06T06:31:22;8.60;;;3.72;;
46090;SDS011;31826;53.572;10.170;2023-08-06T06:33:48;11.47;;;3.80;;
46090;SDS011;31826;53.572;10.170;2023-08-06T06:36:14;9.20;;;3.50;;
46090;SDS011;31826;53.572;10.170;2023-08-06T06:38:39;9.23;;;3.90;;
46090;SDS011;31826;53.572;10.170;2023-08-06T06:41:05;7.87;;;3.60;;
46090;SDS011;31826;53.572;10.170;2023-08-06T06:43:31;8.50;;;3.40;;
46090;SDS011;31826;53.572;10.170;2023-08-06T06:45:57;9.82;;;4.05;;
46090;SDS011;31826;53.572;10.170;2023-08-06T06:48:31;9.18;;;3.45;;
46090;SDS011;31826;53.572;10.170;2023-08-06T06:50:58;9.73;;;3.40;;
46090;SDS011;31826;53.572;10.170;2023-08-06T06:53:24;8.37;;;3.60;;
46090;SDS011;31826;53.572;10.170;2023-08-06T06:55:53;9.43;;;3.80;;
46090;SDS011;31826;53.572;10.170;2023-08-06T06:58:19;8.60;;;3.93;;
46090;SDS011;31826;53.572;10.170;2023-08-06T07:00:46;8.20;;;3.55;;
46090;SDS011;31826;53.572;10.170;2023-08-06T07:03:13;9.10;;;3.78;;
46090;SDS011;31826;53.572;10.170;2023-08-06T07:05:39;10.43;;;3.38;;
46090;SDS011;31826;53.572;10.170;2023-08-06T07:08:05;10.80;;;4.00;;
46090;SDS011;31826;53.572;10.170;2023-08-06T07:10:30;8.50;;;3.53;;
46090;SDS011;31826;53.572;10.170;2023-08-06T07:12:56;10.77;;;4.13;;
46090;SDS011;31826;53.572;10.170;2023-08-06T07:15:22;9.60;;;3.72;;
46090;SDS011;31826;53.572;10.170;2023-08-06T07:17:47;9.75;;;3.75;;
46090;SDS011;31826;53.572;10.170;2023-08-06T07:20:13;8.90;;;3.83;;
46090;SDS011;31826;53.572;10.170;2023-08-06T07:22:39;11.07;;;3.90;;
46090;SDS011;31826;53.572;10.170;2023-08-06T07:25:04;8.53;;;3.33;;
46090;SDS011;31826;53.572;10.170;2023-08-06T07:27:30;10.23;;;3.75;;
46090;SDS011;31826;53.572;10.170;2023-08-06T07:29:57;9.15;;;4.55;;
46090;SDS011;31826;53.572;10.170;2023-08-06T07:32:23;10.33;;;3.47;;
46090;SDS011;31826;53.572;10.170;2023-08-06T07:34:49;8.87;;;3.53;;
46090;SDS011;31826;53.572;10.170;2023-08-06T07:37:15;8.40;;;3.85;;
46090;SDS011;31826;53.572;10.170;2023-08-06T07:39:40;9.02;;;4.05;;
46090;SDS011;31826;53.572;10.170;2023-08-06T07:42:07;8.68;;;3.70;;
46090;SDS011;31826;53.572;10.170;2023-08-06T07:44:33;8.98;;;3.92;;
46090;SDS011;31826;53.572;10.170;2023-08-06T07:46:59;14.13;;;4.10;;
46090;SDS011;31826;53.572;10.170;2023-08-06T07:49:24;12.70;;;5.28;;
46090;SDS011;31826;53.572;10.170;2023-08-06T07:51:51;19.08;;;10.07;;
46090;SDS011;31826;53.572;10.170;2023-08-06T07:54:18;9.20;;;3.88;;
46090;SDS011;31826;53.572;10.170;2023-08-06T07:56:43;10.70;;;4.22;;
46090;SDS011;31826;53.572;10.170;2023-08-06T07:59:09;10.13;;;4.15;;
46090;SDS011;31826;53.572;10.170;2023-08-06T08:01:35;10.13;;;4.03;;
46090;SDS011;31826;53.572;10.170;2023-08-06T08:04:00;7.07;;;3.70;;
46090;SDS011;31826;53.572;10.170;2023-08-06T08:06:26;8.23;;;3.80;;
46090;SDS011;31826;53.572;10.170;2023-08-06T08:08:52;9.02;;;4.38;;
46090;SDS011;31826;53.572;10.170;2023-08-06T08:11:17;9.40;;;3.80;;
46090;SDS011;31826;53.572;10.170;2023-08-06T08:13:43;10.07;;;4.90;;
46090;SDS011;31826;53.572;10.170;2023-08-06T08:16:09;19.17;;;8.93;;
46090;SDS011;31826;53.572;10.170;2023-08-06T08:18:35;11.80;;;5.03;;
46090;SDS011;31826;53.572;10.170;2023-08-06T08:21:00;8.55;;;3.90;;
46090;SDS011;31826;53.572;10.170;2023-08-06T08:23:26;10.13;;;4.20;;
46090;SDS011;31826;53.572;10.170;2023-08-06T08:25:52;8.98;;;4.22;;
46090;SDS011;31826;53.572;10.170;2023-08-06T08:28:18;10.15;;;4.65;;
46090;SDS011;31826;53.572;10.170;2023-08-06T08:30:44;11.63;;;4.50;;
46090;SDS011;31826;53.572;10.170;2023-08-06T08:33:09;8.65;;;4.22;;
46090;SDS011;31826;53.572;10.170;2023-08-06T08:35:36;10.60;;;4.67;;
46090;SDS011;31826;53.572;10.170;2023-08-06T08:38:02;9.20;;;4.00;;
46090;SDS011;31826;53.572;10.170;2023-08-06T08:40:32;9.40;;;4.10;;
46090;SDS011;31826;53.572;10.170;2023-08-06T08:42:59;9.88;;;4.35;;
46090;SDS011;31826;53.572;10.170;2023-08-06T08:45:29;10.55;;;4.32;;
46090;SDS011;31826;53.572;10.170;2023-08-06T08:47:55;9.53;;;4.73;;
46090;SDS011;31826;53.572;10.170;2023-08-06T08:50:21;8.60;;;3.78;;
46090;SDS011;31826;53.572;10.170;2023-08-06T08:52:47;8.93;;;4.28;;
46090;SDS011;31826;53.572;10.170;2023-08-06T08:55:15;10.52;;;4.80;;
46090;SDS011;31826;53.572;10.170;2023-08-06T08:57:43;8.83;;;4.43;;
46090;SDS011;31826;53.572;10.170;2023-08-06T09:00:10;10.27;;;4.25;;
46090;SDS011;31826;53.572;10.170;2023-08-06T09:02:39;11.43;;;5.60;;
46090;SDS011;31826;53.572;10.170;2023-08-06T09:05:07;9.43;;;4.20;;
46090;SDS011;31826;53.572;10.170;2023-08-06T09:07:39;8.70;;;4.10;;
46090;SDS011;31826;53.572;10.170;2023-08-06T09:10:11;9.15;;;4.20;;
46090;SDS011;31826;53.572;10.170;2023-08-06T09:12:39;12.07;;;4.43;;
46090;SDS011;31826;53.572;10.170;2023-08-06T09:15:05;7.78;;;4.13;;
46090;SDS011;31826;53.572;10.170;2023-08-06T09:17:31;10.15;;;4.63;;
46090;SDS011;31826;53.572;10.170;2023-08-06T09:19:57;16.03;;;4.87;;
46090;SDS011;31826;53.572;10.170;2023-08-06T09:22:22;10.05;;;4.25;;
46090;SDS011;31826;53.572;10.170;2023-08-06T09:24:48;11.00;;;4.50;;
46090;SDS011;31826;53.572;10.170;2023-08-06T09:27:15;10.10;;;4.38;;
46090;SDS011;31826;53.572;10.170;2023-08-06T09:29:45;10.20;;;4.47;;
46090;SDS011;31826;53.572;10.170;2023-08-06T09:32:11;10.60;;;4.47;;
46090;SDS011;31826;53.572;10.170;2023-08-06T09:34:38;10.77;;;4.82;;
46090;SDS011;31826;53.572;10.170;2023-08-06T09:37:10;11.50;;;4.60;;
46090;SDS011;31826;53.572;10.170;2023-08-06T09:39:38;12.82;;;5.13;;
46090;SDS011;31826;53.572;10.170;2023-08-06T09:42:06;11.73;;;5.15;;
46090;SDS011;31826;53.572;10.170;2023-08-06T09:44:32;9.93;;;4.88;;
46090;SDS011;31826;53.572;10.170;2023-08-06T09:47:00;10.43;;;4.72;;
46090;SDS011;31826;53.572;10.170;2023-08-06T09:49:28;9.73;;;4.47;;
46090;SDS011;31826;53.572;10.170;2023-08-06T09:52:07;8.45;;;4.88;;
46090;SDS011;31826;53.572;10.170;2023-08-06T09:54:37;9.77;;;4.75;;
46090;SDS011;31826;53.572;10.170;2023-08-06T09:57:03;10.88;;;5.22;;
46090;SDS011;31826;53.572;10.170;2023-08-06T09:59:30;10.23;;;4.90;;
46090;SDS011;31826;53.572;10.170;2023-08-06T10:01:57;10.13;;;5.30;;
46090;SDS011;31826;53.572;10.170;2023-08-06T10:04:24;11.13;;;4.80;;
46090;SDS011;31826;53.572;10.170;2023-08-06T10:06:50;10.15;;;5.28;;
46090;SDS011;31826;53.572;10.170;2023-08-06T10:09:16;9.77;;;4.90;;
46090;SDS011;31826;53.572;10.170;2023-08-06T10:11:43;11.38;;;5.03;;
46090;SDS011;31826;53.572;10.170;2023-08-06T10:14:14;9.48;;;4.85;;
46090;SDS011;31826;53.572;10.170;2023-08-06T10:16:43;10.05;;;5.00;;
46090;SDS011;31826;53.572;10.170;2023-08-06T10:19:10;10.30;;;5.15;;
46090;SDS011;31826;53.572;10.170;2023-08-06T10:21:40;9.30;;;4.70;;
46090;SDS011;31826;53.572;10.170;2023-08-06T10:24:09;9.40;;;5.10;;
46090;SDS011;31826;53.572;10.170;2023-08-06T10:26:39;10.10;;;4.85;;
46090;SDS011;31826;53.572;10.170;2023-08-06T10:32:02;12.02;;;4.57;;
46090;SDS011;31826;53.572;10.170;2023-08-06T10:35:11;8.63;;;4.80;;
46090;SDS011;31826;53.572;10.170;2023-08-06T10:37:22;9.65;;;4.60;;
46090;SDS011;31826;53.572;10.170;2023-08-06T10:39:51;9.35;;;4.80;;
46090;SDS011;31826;53.572;10.170;2023-08-06T10:42:27;9.27;;;4.30;;
46090;SDS011;31826;53.572;10.170;2023-08-06T10:47:40;7.43;;;4.10;;
46090;SDS011;31826;53.572;10.170;2023-08-06T10:50:15;9.48;;;4.70;;
46090;SDS011;31826;53.572;10.170;2023-08-06T10:52:46;8.55;;;4.70;;
46090;SDS011;31826;53.572;10.170;2023-08-06T10:55:12;8.07;;;3.90;;
46090;SDS011;31826;53.572;10.170;2023-08-06T10:57:39;8.83;;;4.20;;
46090;SDS011;31826;53.572;10.170;2023-08-06T11:00:05;8.95;;;4.63;;
46090;SDS011;31826;53.572;10.170;2023-08-06T11:02:34;9.00;;;4.20;;
46090;SDS011;31826;53.572;10.170;2023-08-06T11:05:04;8.85;;;4.22;;
46090;SDS011;31826;53.572;10.170;2023-08-06T11:07:34;8.85;;;4.70;;
46090;SDS011;31826;53.572;10.170;2023-08-06T11:10:04;9.95;;;4.40;;
46090;SDS011;31826;53.572;10.170;2023-08-06T11:12:31;9.82;;;4.50;;
46090;SDS011;31826;53.572;10.170;2023-08-06T11:14:58;10.18;;;4.80;;
46090;SDS011;31826;53.572;10.170;2023-08-06T11:17:24;7.03;;;4.10;;
46090;SDS011;31826;53.572;10.170;2023-08-06T11:19:51;9.15;;;4.35;;
46090;SDS011;31826;53.572;10.170;2023-08-06T11:22:18;9.43;;;4.40;;
46090;SDS011;31826;53.572;10.170;2023-08-06T11:24:45;8.63;;;4.25;;
46090;SDS011;31826;53.572;10.170;2023-08-06T11:27:11;10.98;;;4.38;;
46090;SDS011;31826;53.572;10.170;2023-08-06T11:29:38;9.65;;;4.35;;
46090;SDS011;31826;53.572;10.170;2023-08-06T11:32:04;7.75;;;4.00;;
46090;SDS011;31826;53.572;10.170;2023-08-06T11:34:30;11.15;;;4.22;;
46090;SDS011;31826;53.572;10.170;2023-08-06T11:36:56;7.93;;;4.07;;
46090;SDS011;31826;53.572;10.170;2023-08-06T11:39:22;8.38;;;3.80;;
46090;SDS011;31826;53.572;10.170;2023-08-06T11:41:48;8.38;;;3.97;;
46090;SDS011;31826;53.572;10.170;2023-08-06T11:44:14;9.57;;;3.78;;
46090;SDS011;31826;53.572;10.170;2023-08-06T11:46:49;7.82;;;4.00;;
46090;SDS011;31826;53.572;10.170;2023-08-06T11:49:17;7.53;;;4.10;;
46090;SDS011;31826;53.572;10.170;2023-08-06T11:51:47;8.18;;;4.15;;
46090;SDS011;31826;53.572;10.170;2023-08-06T11:54:13;10.23;;;4.05;;
46090;SDS011;31826;53.572;10.170;2023-08-06T11:56:38;8.68;;;4.38;;
46090;SDS011;31826;53.572;10.170;2023-08-06T11:59:04;7.68;;;4.55;;
46090;SDS011;31826;53.572;10.170;2023-08-06T12:01:31;10.00;;;4.68;;
46090;SDS011;31826;53.572;10.170;2023-08-06T12:04:00;10.02;;;4.50;;
46090;SDS011;31826;53.572;10.170;2023-08-06T12:06:28;10.23;;;4.40;;
46090;SDS011;31826;53.572;10.170;2023-08-06T12:08:54;9.40;;;4.32;;
46090;SDS011;31826;53.572;10.170;2023-08-06T12:11:23;11.20;;;5.50;;
46090;SDS011;31826;53.572;10.170;2023-08-06T12:13:52;10.32;;;4.53;;
46090;SDS011;31826;53.572;10.170;2023-08-06T12:16:19;11.75;;;4.63;;
46090;SDS011;31826;53.572;10.170;2023-08-06T12:18:46;9.45;;;3.95;;
46090;SDS011;31826;53.572;10.170;2023-08-06T12:21:14;9.25;;;4.20;;
46090;SDS011;31826;53.572;10.170;2023-08-06T12:23:40;9.30;;;4.37;;
46090;SDS011;31826;53.572;10.170;2023-08-06T12:26:05;9.75;;;4.32;;
46090;SDS011;31826;53.572;10.170;2023-08-06T12:28:31;9.25;;;4.13;;
46090;SDS011;31826;53.572;10.170;2023-08-06T12:30:57;7.33;;;3.97;;
46090;SDS011;31826;53.572;10.170;2023-08-06T12:33:22;7.80;;;4.17;;
46090;SDS011;31826;53.572;10.170;2023-08-06T12:35:48;7.57;;;4.15;;
46090;SDS011;31826;53.572;10.170;2023-08-06T12:38:14;8.85;;;4.15;;
46090;SDS011;31826;53.572;10.170;2023-08-06T12:40:40;10.52;;;4.32;;
46090;SDS011;31826;53.572;10.170;2023-08-06T12:43:06;9.95;;;4.20;;
46090;SDS011;31826;53.572;10.170;2023-08-06T12:45:31;9.10;;;4.18;;
46090;SDS011;31826;53.572;10.170;2023-08-06T12:47:57;9.27;;;4.10;;
46090;SDS011;31826;53.572;10.170;2023-08-06T12:50:23;6.77;;;3.80;;
46090;SDS011;31826;53.572;10.170;2023-08-06T12:52:48;8.68;;;4.18;;
46090;SDS011;31826;53.572;10.170;2023-08-06T12:55:14;8.70;;;4.35;;
46090;SDS011;31826;53.572;10.170;2023-08-06T12:57:40;11.20;;;4.65;;
46090;SDS011;31826;53.572;10.170;2023-08-06T13:00:06;8.63;;;4.30;;
46090;SDS011;31826;53.572;10.170;2023-08-06T13:02:32;9.40;;;4.28;;
46090;SDS011;31826;53.572;10.170;2023-08-06T13:04:57;7.40;;;4.17;;
46090;SDS011;31826;53.572;10.170;2023-08-06T13:07:23;10.10;;;4.90;;
46090;SDS011;31826;53.572;10.170;2023-08-06T13:09:50;11.20;;;4.45;;
46090;SDS011;31826;53.572;10.170;2023-08-06T13:12:16;10.03;;;4.57;;
46090;SDS011;31826;53.572;10.170;2023-08-06T13:14:44;9.23;;;4.53;;
46090;SDS011;31826;53.572;10.170;2023-08-06T13:17:09;9.77;;;4.70;;
46090;SDS011;31826;53.572;10.170;2023-08-06T13:19:35;9.50;;;4.70;;
46090;SDS011;31826;53.572;10.170;2023-08-06T13:22:02;9.23;;;4.80;;
46090;SDS011;31826;53.572;10.170;2023-08-06T13:24:30;9.90;;;4.37;;
46090;SDS011;31826;53.572;10.170;2023-08-06T13:26:56;10.18;;;4.72;;
46090;SDS011;31826;53.572;10.170;2023-08-06T13:29:21;9.50;;;4.50;;
46090;SDS011;31826;53.572;10.170;2023-08-06T13:31:47;9.93;;;4.70;;
46090;SDS011;31826;53.572;10.170;2023-08-06T13:34:13;9.57;;;4.05;;
46090;SDS011;31826;53.572;10.170;2023-08-06T13:36:41;9.07;;;3.88;;
46090;SDS011;31826;53.572;10.170;2023-08-06T13:39:07;9.10;;;4.13;;
46090;SDS011;31826;53.572;10.170;2023-08-06T13:41:33;8.77;;;4.43;;
46090;SDS011;31826;53.572;10.170;2023-08-06T13:43:58;8.90;;;3.90;;
46090;SDS011;31826;53.572;10.170;2023-08-06T13:46:24;8.48;;;3.88;;
46090;SDS011;31826;53.572;10.170;2023-08-06T13:48:50;8.50;;;4.00;;
46090;SDS011;31826;53.572;10.170;2023-08-06T13:51:16;8.43;;;3.90;;
46090;SDS011;31826;53.572;10.170;2023-08-06T13:53:42;9.85;;;4.10;;
46090;SDS011;31826;53.572;10.170;2023-08-06T13:56:11;8.18;;;3.60;;
46090;SDS011;31826;53.572;10.170;2023-08-06T13:58:39;11.15;;;4.25;;
46090;SDS011;31826;53.572;10.170;2023-08-06T14:01:05;12.27;;;3.72;;
46090;SDS011;31826;53.572;10.170;2023-08-06T14:03:31;9.45;;;4.00;;
46090;SDS011;31826;53.572;10.170;2023-08-06T14:05:56;8.63;;;3.40;;
46090;SDS011;31826;53.572;10.170;2023-08-06T14:08:22;8.00;;;4.00;;
46090;SDS011;31826;53.572;10.170;2023-08-06T14:10:49;8.13;;;3.30;;
46090;SDS011;31826;53.572;10.170;2023-08-06T14:13:15;5.68;;;2.65;;
46090;SDS011;31826;53.572;10.170;2023-08-06T14:15:41;6.10;;;2.60;;
46090;SDS011;31826;53.572;10.170;2023-08-06T14:18:11;4.85;;;2.30;;
46090;SDS011;31826;53.572;10.170;2023-08-06T14:20:41;6.15;;;2.42;;
46090;SDS011;31826;53.572;10.170;2023-08-06T14:23:07;6.88;;;2.70;;
46090;SDS011;31826;53.572;10.170;2023-08-06T14:25:32;5.13;;;2.50;;
46090;SDS011;31826;53.572;10.170;2023-08-06T14:27:58;6.45;;;2.60;;
46090;SDS011;31826;53.572;10.170;2023-08-06T14:30:24;6.05;;;2.30;;
46090;SDS011;31826;53.572;10.170;2023-08-06T14:32:50;7.00;;;2.80;;
46090;SDS011;31826;53.572;10.170;2023-08-06T14:35:15;5.23;;;2.50;;
46090;SDS011;31826;53.572;10.170;2023-08-06T14:37:41;5.90;;;2.30;;
46090;SDS011;31826;53.572;10.170;2023-08-06T14:40:07;6.68;;;2.22;;